createdAt,value
2022-10-03T00:00:22.818Z,10.40
2022-10-03T00:03:22.349Z,10.40
2022-10-03T00:06:15.265Z,10.40
2022-10-03T00:09:04.556Z,10.40
2022-10-03T00:12:03.744Z,10.40
2022-10-03T00:14:40.021Z,10.40
2022-10-03T00:17:12.560Z,10.30
2022-10-03T00:20:27.147Z,10.30
2022-10-03T00:22:58.897Z,10.20
2022-10-03T00:25:49.943Z,10.20
2022-10-03T00:28:48.689Z,10.30
2022-10-03T00:31:22.712Z,10.30
2022-10-03T00:34:09.568Z,10.20
2022-10-03T00:36:59.789Z,10.20
2022-10-03T00:40:04.483Z,10.20
2022-10-03T00:42:57.169Z,10.20
2022-10-03T00:46:14.963Z,10.20
2022-10-03T00:48:56.173Z,10.20
2022-10-03T00:51:51.731Z,10.20
2022-10-03T00:54:21.239Z,10.20
2022-10-03T00:57:25.380Z,10.10
2022-10-03T01:00:21.736Z,10.20
2022-10-03T01:02:57.445Z,10.20
2022-10-03T01:05:45.246Z,10.20
2022-10-03T01:08:17.983Z,10.20
2022-10-03T01:11:03.198Z,10.20
2022-10-03T01:13:51.859Z,10.20
2022-10-03T01:16:38.248Z,10.20
2022-10-03T01:19:41.153Z,10.20
2022-10-03T01:22:22.815Z,10.10
2022-10-03T01:25:07.433Z,10.10
2022-10-03T01:28:10.688Z,10.10
2022-10-03T01:30:55.723Z,10.10
2022-10-03T01:33:48.174Z,10.00
2022-10-03T01:36:20.878Z,10.00
2022-10-03T01:39:03.783Z,10.00
2022-10-03T01:41:52.044Z,10.00
2022-10-03T01:44:28.362Z,10.00
2022-10-03T01:47:23.922Z,10.10
2022-10-03T01:49:53.569Z,10.10
2022-10-03T01:52:22.895Z,10.10
2022-10-03T01:55:01.703Z,10.10
2022-10-03T01:58:11.423Z,10.00
2022-10-03T02:00:50.099Z,10.00
2022-10-03T02:03:32.843Z,10.00
2022-10-03T02:06:35.180Z,10.00
2022-10-03T02:09:11.418Z,10.00
2022-10-03T02:11:53.417Z,10.10
2022-10-03T02:14:41.486Z,10.10
2022-10-03T02:17:48.204Z,10.20
2022-10-03T02:20:42.235Z,10.00
2022-10-03T02:23:36.184Z,10.00
2022-10-03T02:26:08.997Z,10.00
2022-10-03T02:28:55.267Z,10.00
2022-10-03T02:31:59.716Z,10.00
2022-10-03T02:34:56.789Z,10.00
2022-10-03T02:37:46.451Z,10.00
2022-10-03T02:41:10.264Z,9.90
2022-10-03T02:44:12.725Z,9.90
2022-10-03T02:47:03.414Z,9.90
2022-10-03T02:49:53.246Z,9.90
2022-10-03T02:52:37.910Z,9.90
2022-10-03T02:55:28.395Z,9.90
2022-10-03T02:58:40.973Z,9.80
2022-10-03T03:01:42.957Z,9.80
2022-10-03T03:04:43.964Z,9.70
2022-10-03T03:07:31.512Z,9.80
2022-10-03T03:10:19.860Z,9.70
2022-10-03T03:13:15.835Z,9.60
2022-10-03T03:16:04.365Z,9.60
2022-10-03T03:18:44.155Z,9.60
2022-10-03T03:21:24.742Z,9.60
2022-10-03T03:24:47.467Z,9.50
2022-10-03T03:27:51.968Z,9.60
2022-10-03T03:30:32.435Z,9.50
2022-10-03T03:33:35.312Z,9.50
2022-10-03T03:36:05.213Z,9.50
2022-10-03T03:38:55.162Z,9.50
2022-10-03T03:41:50.042Z,9.40
2022-10-03T03:44:37.378Z,9.40
2022-10-03T03:47:10.570Z,9.60
2022-10-03T03:49:52.225Z,9.50
2022-10-03T03:52:18.781Z,9.40
2022-10-03T03:55:15.053Z,9.40
2022-10-03T03:57:59.730Z,9.40
2022-10-03T04:00:48.583Z,9.50
2022-10-03T04:03:34.493Z,9.40
2022-10-03T04:06:34.666Z,9.40
2022-10-03T04:09:13.585Z,9.40
2022-10-03T04:11:59.563Z,9.40
2022-10-03T04:15:00.586Z,9.40
2022-10-03T04:18:16.465Z,9.40
2022-10-03T04:21:22.628Z,9.50
2022-10-03T04:24:13.362Z,9.40
2022-10-03T04:27:27.798Z,9.40
2022-10-03T04:30:20.501Z,9.40
2022-10-03T04:33:02.556Z,9.40
2022-10-03T04:35:40.859Z,9.40
2022-10-03T04:38:23.811Z,9.40
2022-10-03T04:41:05.042Z,9.30
2022-10-03T04:43:43.623Z,9.30
2022-10-03T04:46:34.670Z,9.30
2022-10-03T04:49:23.531Z,9.30
2022-10-03T04:52:13.335Z,9.30
2022-10-03T04:54:58.787Z,9.30
2022-10-03T04:57:30.433Z,9.30
2022-10-03T05:00:15.311Z,9.30
2022-10-03T05:03:15.209Z,9.30
2022-10-03T05:06:06.052Z,9.30
2022-10-03T05:09:04.634Z,9.30
2022-10-03T05:11:55.688Z,9.30
2022-10-03T05:14:34.819Z,9.30
2022-10-03T05:17:26.385Z,9.40
2022-10-03T05:20:31.051Z,9.30
2022-10-03T05:23:24.863Z,9.30
2022-10-03T05:26:44.153Z,9.30
2022-10-03T05:29:38.124Z,9.30
2022-10-03T05:32:39.788Z,9.30
2022-10-03T05:35:15.562Z,9.40
2022-10-03T05:37:55.178Z,9.30
2022-10-03T05:40:27.179Z,9.40
2022-10-03T05:43:02.575Z,9.30
2022-10-03T05:45:31.895Z,9.30
2022-10-03T05:48:19.478Z,9.30
2022-10-03T05:51:50.655Z,9.40
2022-10-03T05:54:31.870Z,9.30
2022-10-03T05:57:07.175Z,9.40
2022-10-03T05:59:52.672Z,9.40
2022-10-03T06:02:38.176Z,9.50
2022-10-03T06:05:29.566Z,9.40
2022-10-03T06:08:15.266Z,9.50
2022-10-03T06:11:14.137Z,9.50
2022-10-03T06:14:11.666Z,9.50
2022-10-03T06:16:52.399Z,9.50
2022-10-03T06:19:36.479Z,9.40
2022-10-03T06:22:43.687Z,9.40
2022-10-03T06:25:31.480Z,9.40
2022-10-03T06:28:18.086Z,9.40
2022-10-03T06:31:01.627Z,9.50
2022-10-03T06:34:12.426Z,9.60
2022-10-03T06:37:05.154Z,9.60
2022-10-03T06:39:55.285Z,9.60
2022-10-03T06:42:30.819Z,9.60
2022-10-03T06:45:25.584Z,9.60
2022-10-03T06:48:00.002Z,9.60
2022-10-03T06:50:46.064Z,9.60
2022-10-03T06:53:27.747Z,9.50
2022-10-03T06:56:00.335Z,9.60
2022-10-03T06:58:48.689Z,9.60
2022-10-03T07:01:50.683Z,9.60
2022-10-03T07:04:32.468Z,9.60
2022-10-03T07:07:55.944Z,9.60
2022-10-03T07:10:57.725Z,9.60
2022-10-03T07:13:45.306Z,9.70
2022-10-03T07:16:29.658Z,9.60
2022-10-03T07:19:21.844Z,9.60
2022-10-03T07:22:22.169Z,9.60
2022-10-03T07:25:18.641Z,9.70
2022-10-03T07:28:09.769Z,9.70
2022-10-03T07:31:05.606Z,9.70
2022-10-03T07:33:39.271Z,9.80
2022-10-03T07:36:49.175Z,9.80
2022-10-03T07:39:48.301Z,9.80
2022-10-03T07:42:42.483Z,9.80
2022-10-03T07:45:30.094Z,9.80
2022-10-03T07:48:15.578Z,9.80
2022-10-03T07:50:51.217Z,9.80
2022-10-03T07:54:00.631Z,9.80
2022-10-03T07:56:49.129Z,9.80
2022-10-03T07:59:47.516Z,9.80
2022-10-03T08:02:37.051Z,9.80
2022-10-03T08:05:28.189Z,9.70
2022-10-03T08:08:16.549Z,9.80
2022-10-03T08:11:07.789Z,9.90
2022-10-03T08:14:18.041Z,9.90
2022-10-03T08:17:02.747Z,9.90
2022-10-03T08:19:58.719Z,9.90
2022-10-03T08:22:37.482Z,9.90
2022-10-03T08:25:22.614Z,10.00
2022-10-03T08:28:07.834Z,9.90
2022-10-03T08:30:37.394Z,10.00
2022-10-03T08:33:12.892Z,9.90
2022-10-03T08:36:07.199Z,10.00
2022-10-03T08:38:52.462Z,10.10
2022-10-03T08:41:50.718Z,10.10
2022-10-03T08:44:45.613Z,10.00
2022-10-03T08:47:27.393Z,10.00
2022-10-03T08:50:21.902Z,10.00
2022-10-03T08:52:51.565Z,10.10
2022-10-03T08:55:46.057Z,10.10
2022-10-03T08:58:44.791Z,10.10
2022-10-03T09:01:36.231Z,10.10
2022-10-03T09:04:21.446Z,10.10
2022-10-03T09:07:15.489Z,10.20
2022-10-03T09:10:09.416Z,10.30
2022-10-03T09:13:30.163Z,10.30
2022-10-03T09:16:23.989Z,10.30
2022-10-03T09:19:05.826Z,10.40
2022-10-03T09:22:15.558Z,10.40
2022-10-03T09:24:55.054Z,10.50
2022-10-03T09:27:46.349Z,10.40
2022-10-03T09:30:47.218Z,10.40
2022-10-03T09:33:23.114Z,10.50
2022-10-03T09:35:58.717Z,10.50
2022-10-03T09:38:39.452Z,10.50
2022-10-03T09:41:28.425Z,10.60
2022-10-03T09:44:07.341Z,10.60
2022-10-03T09:46:46.451Z,10.60
2022-10-03T09:49:25.219Z,10.70
2022-10-03T09:52:16.392Z,10.70
2022-10-03T09:55:15.011Z,10.70
2022-10-03T09:58:12.141Z,10.80
2022-10-03T10:01:11.200Z,10.90
2022-10-03T10:03:46.659Z,11.00
2022-10-03T10:06:34.574Z,10.90
2022-10-03T10:09:27.370Z,11.00
2022-10-03T10:12:26.220Z,11.10
2022-10-03T10:15:01.208Z,11.30
2022-10-03T10:17:46.493Z,11.30
2022-10-03T10:20:33.633Z,11.30
2022-10-03T10:23:42.656Z,11.50
2022-10-03T10:26:43.539Z,11.70
2022-10-03T10:29:49.345Z,11.70
2022-10-03T10:32:44.608Z,11.80
2022-10-03T10:35:15.229Z,11.90
2022-10-03T10:38:19.642Z,12.00
2022-10-03T10:41:05.102Z,12.30
2022-10-03T10:43:47.131Z,12.40
2022-10-03T10:46:37.348Z,12.60
2022-10-03T10:49:09.813Z,12.50
2022-10-03T10:51:52.905Z,12.60
2022-10-03T10:54:41.452Z,12.50
2022-10-03T10:57:40.407Z,12.40
2022-10-03T11:00:46.827Z,12.50
2022-10-03T11:03:22.617Z,12.60
2022-10-03T11:06:08.115Z,12.80
2022-10-03T11:08:40.748Z,12.80
2022-10-03T11:11:19.309Z,12.60
2022-10-03T11:14:13.984Z,12.70
2022-10-03T11:17:08.653Z,13.00
2022-10-03T11:19:50.708Z,13.00
2022-10-03T11:22:54.154Z,13.20
2022-10-03T11:25:43.646Z,13.40
2022-10-03T11:28:59.387Z,13.30
2022-10-03T11:32:06.187Z,13.50
2022-10-03T11:35:03.612Z,13.60
2022-10-03T11:37:30.874Z,14.10
2022-10-03T11:40:09.880Z,14.20
2022-10-03T11:42:54.584Z,14.30
2022-10-03T11:45:29.477Z,13.90
2022-10-03T11:48:12.969Z,13.70
2022-10-03T11:50:56.243Z,13.50
2022-10-03T11:53:37.771Z,13.50
2022-10-03T11:56:30.894Z,13.80
2022-10-03T11:59:40.017Z,14.20
2022-10-03T12:02:22.780Z,14.50
2022-10-03T12:05:01.253Z,14.40
2022-10-03T12:07:49.604Z,14.30
2022-10-03T12:10:47.113Z,14.40
2022-10-03T12:13:30.206Z,14.50
2022-10-03T12:15:58.808Z,14.50
2022-10-03T12:18:34.153Z,14.60
2022-10-03T12:21:11.211Z,14.60
2022-10-03T12:24:19.421Z,14.50
2022-10-03T12:27:10.178Z,14.40
2022-10-03T12:29:45.768Z,14.30
2022-10-03T12:32:26.745Z,14.20
2022-10-03T12:35:17.583Z,14.30
2022-10-03T12:38:07.500Z,14.40
2022-10-03T12:40:43.904Z,14.30
2022-10-03T12:43:39.248Z,14.20
2022-10-03T12:46:16.072Z,14.40
2022-10-03T12:49:01.765Z,14.40
2022-10-03T12:51:45.885Z,14.30
2022-10-03T12:54:35.459Z,14.20
2022-10-03T12:57:33.547Z,14.20
2022-10-03T13:00:22.328Z,14.50
2022-10-03T13:03:03.969Z,14.50
2022-10-03T13:05:56.206Z,14.50
2022-10-03T13:08:48.237Z,14.60
2022-10-03T13:11:41.411Z,14.90
2022-10-03T13:14:44.293Z,15.20
2022-10-03T13:17:21.191Z,15.20
2022-10-03T13:20:31.072Z,15.30
2022-10-03T13:23:25.459Z,15.30
2022-10-03T13:26:04.239Z,15.30
2022-10-03T13:29:12.555Z,15.50
2022-10-03T13:32:07.470Z,15.50
2022-10-03T13:35:22.730Z,15.40
2022-10-03T13:38:31.694Z,15.30
2022-10-03T13:41:03.667Z,15.20
2022-10-03T13:43:36.142Z,15.20
2022-10-03T13:46:29.026Z,15.20
2022-10-03T13:49:10.817Z,15.10
2022-10-03T13:52:25.892Z,15.00
2022-10-03T13:55:11.312Z,14.90
2022-10-03T13:57:42.110Z,14.90
2022-10-03T14:00:11.888Z,15.00
2022-10-03T14:02:54.169Z,15.00
2022-10-03T14:05:42.458Z,15.00
2022-10-03T14:08:28.489Z,15.10
2022-10-03T14:11:23.347Z,15.00
2022-10-03T14:14:27.793Z,15.00
2022-10-03T14:17:34.783Z,14.70
2022-10-03T14:20:26.016Z,14.80
2022-10-03T14:23:19.877Z,14.80
2022-10-03T14:26:11.610Z,14.90
2022-10-03T14:29:30.604Z,14.80
2022-10-03T14:32:01.155Z,14.80
2022-10-03T14:35:05.046Z,14.80
2022-10-03T14:37:52.466Z,14.90
2022-10-03T14:40:28.138Z,14.80
2022-10-03T14:43:03.846Z,14.80
2022-10-03T14:45:39.471Z,14.80
2022-10-03T14:48:17.690Z,14.80
2022-10-03T14:50:52.393Z,14.80
2022-10-03T14:53:29.667Z,14.70
2022-10-03T14:56:05.049Z,14.60
2022-10-03T14:58:54.681Z,14.60
2022-10-03T15:01:28.624Z,14.50
2022-10-03T15:03:55.509Z,14.30
2022-10-03T15:06:35.562Z,14.30
2022-10-03T15:09:14.076Z,14.30
2022-10-03T15:12:25.893Z,14.20
2022-10-03T15:15:55.506Z,14.30
2022-10-03T15:18:24.617Z,14.30
2022-10-03T15:21:00.198Z,14.40
2022-10-03T15:24:14.591Z,14.30
2022-10-03T15:27:01.497Z,14.20
2022-10-03T15:29:37.108Z,14.30
2022-10-03T15:32:17.375Z,14.20
2022-10-03T15:35:01.075Z,14.10
2022-10-03T15:38:02.735Z,14.00
2022-10-03T15:40:34.753Z,14.00
2022-10-03T15:43:42.363Z,13.90
2022-10-03T15:46:44.096Z,13.80
2022-10-03T15:49:55.906Z,13.80
2022-10-03T15:52:52.219Z,13.80
2022-10-03T15:55:55.947Z,13.70
2022-10-03T15:58:39.891Z,13.70
2022-10-03T16:01:41.999Z,13.70
2022-10-03T16:04:38.174Z,13.60
2022-10-03T16:07:23.915Z,13.50
2022-10-03T16:10:18.495Z,13.40
2022-10-03T16:12:50.513Z,13.40
2022-10-03T16:15:29.635Z,13.40
2022-10-03T16:18:01.358Z,13.40
2022-10-03T16:20:47.336Z,13.40
2022-10-03T16:23:21.978Z,13.30
2022-10-03T16:26:29.329Z,13.40
2022-10-03T16:29:39.284Z,13.40
2022-10-03T16:32:58.727Z,13.30
2022-10-03T16:35:37.239Z,13.20
2022-10-03T16:38:27.086Z,13.00
2022-10-03T16:41:06.437Z,13.00
2022-10-03T16:43:34.525Z,12.80
2022-10-03T16:46:08.963Z,12.70
2022-10-03T16:48:54.944Z,12.60
2022-10-03T16:51:26.642Z,12.50
2022-10-03T16:53:55.496Z,12.50
2022-10-03T16:56:32.747Z,12.50
2022-10-03T16:59:06.541Z,12.40
2022-10-03T17:01:40.064Z,12.30
2022-10-03T17:04:36.464Z,12.30
2022-10-03T17:07:25.973Z,12.20
2022-10-03T17:10:02.929Z,12.10
2022-10-03T17:12:43.588Z,11.90
2022-10-03T17:15:23.442Z,11.80
2022-10-03T17:18:25.411Z,11.70
2022-10-03T17:21:07.600Z,11.60
2022-10-03T17:23:44.457Z,11.50
2022-10-03T17:26:29.395Z,11.40
2022-10-03T17:29:05.941Z,11.30
2022-10-03T17:32:03.769Z,11.20
2022-10-03T17:34:39.348Z,11.20
2022-10-03T17:37:40.637Z,11.00
2022-10-03T17:40:30.865Z,10.80
2022-10-03T17:43:03.937Z,10.60
2022-10-03T17:45:33.675Z,10.50
2022-10-03T17:48:22.956Z,10.40
2022-10-03T17:51:21.571Z,10.40
2022-10-03T17:53:57.206Z,10.40
2022-10-03T17:56:26.118Z,10.30
2022-10-03T17:59:00.130Z,10.10
2022-10-03T18:01:36.328Z,10.00
2022-10-03T18:04:06.966Z,10.00
2022-10-03T18:06:55.910Z,9.90
2022-10-03T18:09:40.528Z,9.70
2022-10-03T18:12:20.254Z,9.70
2022-10-03T18:15:19.505Z,9.60
2022-10-03T18:18:27.228Z,9.60
2022-10-03T18:21:06.038Z,9.50
2022-10-03T18:23:55.282Z,9.40
2022-10-03T18:26:36.786Z,9.30
2022-10-03T18:29:06.864Z,9.20
2022-10-03T18:31:35.055Z,9.20
2022-10-03T18:34:15.744Z,9.00
2022-10-03T18:36:47.061Z,9.00
2022-10-03T18:39:30.355Z,8.90
2022-10-03T18:41:59.748Z,8.80
2022-10-03T18:44:29.332Z,8.80
2022-10-03T18:47:21.374Z,8.80
2022-10-03T18:50:11.592Z,8.70
2022-10-03T18:53:20.552Z,8.60
2022-10-03T18:56:26.128Z,8.60
2022-10-03T18:59:15.679Z,8.50
2022-10-03T19:01:52.550Z,8.40
2022-10-03T19:04:34.859Z,8.30
2022-10-03T19:07:09.987Z,8.20
2022-10-03T19:09:43.056Z,8.10
2022-10-03T19:12:21.288Z,8.10
2022-10-03T19:15:19.029Z,8.10
2022-10-03T19:18:06.859Z,8.10
2022-10-03T19:20:37.338Z,8.20
2022-10-03T19:23:08.329Z,8.20
2022-10-03T19:25:38.623Z,8.10
2022-10-03T19:28:22.925Z,7.90
2022-10-03T19:31:08.885Z,7.80
2022-10-03T19:33:45.240Z,7.80
2022-10-03T19:36:20.403Z,7.90
2022-10-03T19:38:48.511Z,7.70
2022-10-03T19:41:27.637Z,7.70
2022-10-03T19:43:56.864Z,7.90
2022-10-03T19:46:35.518Z,7.80
2022-10-03T19:49:09.448Z,7.80
2022-10-03T19:51:36.291Z,7.70
2022-10-03T19:54:27.951Z,7.80
2022-10-03T19:56:56.148Z,7.70
2022-10-03T19:59:49.141Z,7.60
2022-10-03T20:02:22.053Z,7.40
2022-10-03T20:04:51.694Z,7.30
2022-10-03T20:07:27.756Z,7.20
2022-10-03T20:10:02.259Z,7.20
2022-10-03T20:12:30.528Z,7.20
2022-10-03T20:15:23.164Z,7.10
2022-10-03T20:17:52.305Z,6.90
2022-10-03T20:20:22.508Z,6.90
2022-10-03T20:22:49.633Z,6.90
2022-10-03T20:25:31.185Z,6.90
2022-10-03T20:28:01.749Z,7.00
2022-10-03T20:30:45.631Z,7.10
2022-10-03T20:33:27.371Z,7.10
2022-10-03T20:36:05.052Z,7.00
2022-10-03T20:38:36.158Z,6.80
2022-10-03T20:41:09.916Z,6.70
2022-10-03T20:43:51.387Z,6.60
2022-10-03T20:46:37.437Z,6.60
2022-10-03T20:49:26.110Z,6.70
2022-10-03T20:51:52.679Z,6.70
2022-10-03T20:54:22.355Z,6.60
2022-10-03T20:57:03.736Z,6.60
2022-10-03T20:59:41.524Z,6.50
2022-10-03T21:02:29.462Z,6.50
2022-10-03T21:05:06.792Z,6.60
2022-10-03T21:07:46.116Z,6.60
2022-10-03T21:10:23.100Z,6.50
2022-10-03T21:12:57.618Z,6.60
2022-10-03T21:15:29.873Z,6.50
2022-10-03T21:17:57.813Z,6.40
2022-10-03T21:20:34.492Z,6.40
2022-10-03T21:23:06.659Z,6.40
2022-10-03T21:25:39.808Z,6.20
2022-10-03T21:28:26.973Z,6.20
2022-10-03T21:31:15.779Z,6.10
2022-10-03T21:33:47.691Z,6.00
2022-10-03T21:36:33.467Z,5.90
2022-10-03T21:39:15.436Z,5.90
2022-10-03T21:41:56.531Z,5.90
2022-10-03T21:44:39.846Z,6.10
2022-10-03T21:47:21.769Z,6.10
2022-10-03T21:50:04.471Z,5.90
2022-10-03T21:52:48.149Z,6.00
2022-10-03T21:55:53.228Z,6.00
2022-10-03T21:58:41.396Z,5.80
2022-10-03T22:01:42.509Z,5.90
2022-10-03T22:04:22.098Z,5.90
2022-10-03T22:07:06.247Z,5.80
2022-10-03T22:09:32.866Z,5.70
2022-10-03T22:12:06.562Z,5.60
2022-10-03T22:14:51.713Z,5.70
2022-10-03T22:17:39.496Z,5.70
2022-10-03T22:20:17.002Z,5.70
2022-10-03T22:23:02.526Z,5.80
2022-10-03T22:26:08.143Z,5.80
2022-10-03T22:29:19.454Z,5.70
2022-10-03T22:31:53.061Z,5.60
2022-10-03T22:34:35.275Z,5.60
2022-10-03T22:37:02.493Z,5.70
2022-10-03T22:39:29.711Z,5.60
2022-10-03T22:42:00.060Z,5.60
2022-10-03T22:44:31.183Z,5.50
2022-10-03T22:47:03.105Z,5.50
2022-10-03T22:49:37.716Z,5.50
2022-10-03T22:52:06.869Z,5.40
2022-10-03T22:54:40.568Z,5.40
2022-10-03T22:57:12.514Z,5.40
2022-10-03T22:59:45.666Z,5.40
2022-10-03T23:02:12.919Z,5.40
2022-10-03T23:04:55.863Z,5.20
2022-10-03T23:07:31.698Z,5.20
2022-10-03T23:10:27.456Z,5.10
2022-10-03T23:12:59.206Z,5.20
2022-10-03T23:15:27.868Z,5.20
2022-10-03T23:18:32.313Z,5.10
2022-10-03T23:21:04.468Z,5.40
2022-10-03T23:24:03.111Z,5.40
2022-10-03T23:26:44.787Z,5.30
2022-10-03T23:29:14.249Z,5.20
2022-10-03T23:32:03.797Z,5.00
2022-10-03T23:34:36.491Z,5.20
2022-10-03T23:37:14.951Z,5.40
2022-10-03T23:40:02.913Z,5.40
2022-10-03T23:42:32.616Z,5.20
2022-10-03T23:45:00.663Z,5.10
2022-10-03T23:47:32.518Z,5.00
2022-10-03T23:50:00.256Z,5.10
2022-10-03T23:52:30.543Z,5.00
2022-10-03T23:55:01.957Z,5.00
2022-10-03T23:57:35.497Z,5.10
